sensor_id;sensor_type;location;lat;lon;timestamp;pressure;altitude;pressure_sealevel;temperature;humidity
68891;BME280;55932;48.702;8.884;2023-02-26T00:01:41;95570;;;-0.5;70
68891;BME280;55932;48.702;8.884;2023-02-26T00:09:13;95570;;;-0.5;69.5
68891;BME280;55932;48.702;8.884;2023-02-26T00:11:44;95570;;;-0.6;70
68891;BME280;55932;48.702;8.884;2023-02-26T00:14:15;95570;;;-0.7;70
68891;BME280;55932;48.702;8.884;2023-02-26T00:19:23;95570;;;-0.8;70
68891;BME280;55932;48.702;8.884;2023-02-26T00:21:54;95580;;;-0.9;70
68891;BME280;55932;48.702;8.884;2023-02-26T00:24:24;95580;;;-0.9;70
68891;BME280;55932;48.702;8.884;2023-02-26T00:26:48;95570;;;-0.9;70
68891;BME280;55932;48.702;8.884;2023-02-26T00:29:19;95570;;;-0.9;70
68891;BME280;55932;48.702;8.884;2023-02-26T00:37:00;95580;;;-0.9;70
68891;BME280;55932;48.702;8.884;2023-02-26T00:39:40;95580;;;-0.9;70
68891;BME280;55932;48.702;8.884;2023-02-26T00:44:24;95580;;;-0.9;70
68891;BME280;55932;48.702;8.884;2023-02-26T00:49:49;95580;;;-1;70
68891;BME280;55932;48.702;8.884;2023-02-26T00:52:11;95580;;;-1.1;70
68891;BME280;55932;48.702;8.884;2023-02-26T00:54:32;95580;;;-1.1;70
68891;BME280;55932;48.702;8.884;2023-02-26T00:57:03;95570;;;-1.1;70
68891;BME280;55932;48.702;8.884;2023-02-26T00:59:34;95570;;;-1.1;70
68891;BME280;55932;48.702;8.884;2023-02-26T01:02:05;95570;;;-1.2;70
68891;BME280;55932;48.702;8.884;2023-02-26T01:04:36;95570;;;-1.2;70
68891;BME280;55932;48.702;8.884;2023-02-26T01:07:07;95570;;;-1.2;70
68891;BME280;55932;48.702;8.884;2023-02-26T01:09:38;95570;;;-1.3;70
68891;BME280;55932;48.702;8.884;2023-02-26T01:12:10;95570;;;-1.3;70
68891;BME280;55932;48.702;8.884;2023-02-26T01:14:40;95570;;;-1.4;70
68891;BME280;55932;48.702;8.884;2023-02-26T01:18:15;95570;;;-1.6;70.5
68891;BME280;55932;48.702;8.884;2023-02-26T01:19:45;95570;;;-1.7;70.5
68891;BME280;55932;48.702;8.884;2023-02-26T01:22:18;95570;;;-1.8;70.5
68891;BME280;55932;48.702;8.884;2023-02-26T01:29:45;95570;;;-2.3;70.5
68891;BME280;55932;48.702;8.884;2023-02-26T01:32:48;95570;;;-2.4;71
68891;BME280;55932;48.702;8.884;2023-02-26T01:34:57;95570;;;-2.6;71
68891;BME280;55932;48.702;8.884;2023-02-26T01:37:20;95570;;;-2.6;71
68891;BME280;55932;48.702;8.884;2023-02-26T01:39:55;95570;;;-2.7;71
68891;BME280;55932;48.702;8.884;2023-02-26T01:45:00;95580;;;-2.6;70.5
68891;BME280;55932;48.702;8.884;2023-02-26T01:47:28;95570;;;-2.5;70.5
68891;BME280;55932;48.702;8.884;2023-02-26T01:49:57;95580;;;-2.4;70.5
68891;BME280;55932;48.702;8.884;2023-02-26T01:57:22;95580;;;-2.3;70
68891;BME280;55932;48.702;8.884;2023-02-26T01:59:53;95580;;;-2.3;70.5
68891;BME280;55932;48.702;8.884;2023-02-26T02:05:03;95580;;;-2.5;70.5
68891;BME280;55932;48.702;8.884;2023-02-26T02:07:31;95590;;;-2.6;71
68891;BME280;55932;48.702;8.884;2023-02-26T02:12:28;95580;;;-2.7;71
68891;BME280;55932;48.702;8.884;2023-02-26T02:15:03;95580;;;-2.5;70.5
68891;BME280;55932;48.702;8.884;2023-02-26T02:17:33;95590;;;-2.3;70
68891;BME280;55932;48.702;8.884;2023-02-26T02:20:15;95580;;;-2.1;70
68891;BME280;55932;48.702;8.884;2023-02-26T02:25:51;95590;;;-2.1;70.5
68891;BME280;55932;48.702;8.884;2023-02-26T02:30:10;95590;;;-2.2;70.5
68891;BME280;55932;48.702;8.884;2023-02-26T02:32:38;95590;;;-2.3;70.5
68891;BME280;55932;48.702;8.884;2023-02-26T02:35:11;95600;;;-2.5;71
68891;BME280;55932;48.702;8.884;2023-02-26T02:37:40;95600;;;-2.7;71
68891;BME280;55932;48.702;8.884;2023-02-26T02:42:33;95600;;;-3.2;71
68891;BME280;55932;48.702;8.884;2023-02-26T02:45:10;95620;;;-3.3;71
68891;BME280;55932;48.702;8.884;2023-02-26T02:47:40;95620;;;-3.4;71
68891;BME280;55932;48.702;8.884;2023-02-26T02:50:06;95620;;;-3.5;71
68891;BME280;55932;48.702;8.884;2023-02-26T02:55:03;95610;;;-3.5;71
68891;BME280;55932;48.702;8.884;2023-02-26T02:57:33;95620;;;-3.6;71
68891;BME280;55932;48.702;8.884;2023-02-26T03:00:04;95610;;;-3.6;71
68891;BME280;55932;48.702;8.884;2023-02-26T03:02:34;95610;;;-3.7;71
68891;BME280;55932;48.702;8.884;2023-02-26T03:05:03;95610;;;-3.8;71
68891;BME280;55932;48.702;8.884;2023-02-26T03:07:35;95620;;;-3.8;71
68891;BME280;55932;48.702;8.884;2023-02-26T03:18:44;95620;;;-4;71
68891;BME280;55932;48.702;8.884;2023-02-26T03:20:20;95630;;;-4.1;71
68891;BME280;55932;48.702;8.884;2023-02-26T03:22:48;95630;;;-4;71
68891;BME280;55932;48.702;8.884;2023-02-26T03:25:25;95640;;;-3.9;70.5
68891;BME280;55932;48.702;8.884;2023-02-26T03:27:48;95640;;;-3.6;70
68891;BME280;55932;48.702;8.884;2023-02-26T03:30:19;95640;;;-3.3;69.5
68891;BME280;55932;48.702;8.884;2023-02-26T03:32:59;95630;;;-3.2;69.5
68891;BME280;55932;48.702;8.884;2023-02-26T03:35:13;95640;;;-3;69.5
68891;BME280;55932;48.702;8.884;2023-02-26T03:45:17;95640;;;-3.3;70
68891;BME280;55932;48.702;8.884;2023-02-26T03:50:19;95640;;;-3.8;70.5
68891;BME280;55932;48.702;8.884;2023-02-26T03:55:35;95640;;;-3.8;70.5
68891;BME280;55932;48.702;8.884;2023-02-26T03:58:01;95640;;;-3.8;70.5
68891;BME280;55932;48.702;8.884;2023-02-26T04:00:26;95650;;;-3.7;70.5
68891;BME280;55932;48.702;8.884;2023-02-26T04:02:58;95650;;;-3.6;70
68891;BME280;55932;48.702;8.884;2023-02-26T04:05:31;95640;;;-3.5;70
68891;BME280;55932;48.702;8.884;2023-02-26T04:08:05;95650;;;-3.4;70
68891;BME280;55932;48.702;8.884;2023-02-26T04:12:53;95650;;;-3;69.5
68891;BME280;55932;48.702;8.884;2023-02-26T04:15:24;95650;;;-2.9;70
68891;BME280;55932;48.702;8.884;2023-02-26T04:17:54;95660;;;-2.9;70
68891;BME280;55932;48.702;8.884;2023-02-26T04:20:25;95660;;;-3.1;70.5
68891;BME280;55932;48.702;8.884;2023-02-26T04:22:56;95660;;;-3.3;70.5
68891;BME280;55932;48.702;8.884;2023-02-26T04:25:26;95660;;;-3.3;70.5
68891;BME280;55932;48.702;8.884;2023-02-26T04:27:57;95660;;;-3.3;70
68891;BME280;55932;48.702;8.884;2023-02-26T04:30:35;95660;;;-3.5;70.5
68891;BME280;55932;48.702;8.884;2023-02-26T04:33:06;95660;;;-3.6;70.5
68891;BME280;55932;48.702;8.884;2023-02-26T04:35:43;95660;;;-3.8;71
68891;BME280;55932;48.702;8.884;2023-02-26T04:38:15;95670;;;-4;71
68891;BME280;55932;48.702;8.884;2023-02-26T04:45:46;95670;;;-4.3;71
68891;BME280;55932;48.702;8.884;2023-02-26T04:48:17;95680;;;-4.3;71
68891;BME280;55932;48.702;8.884;2023-02-26T04:50:40;95680;;;-4.3;71
68891;BME280;55932;48.702;8.884;2023-02-26T04:53:11;95670;;;-4.4;71
68891;BME280;55932;48.702;8.884;2023-02-26T04:55:42;95670;;;-4.4;71
68891;BME280;55932;48.702;8.884;2023-02-26T04:58:13;95670;;;-4.4;71
68891;BME280;55932;48.702;8.884;2023-02-26T05:00:48;95680;;;-4.4;71
68891;BME280;55932;48.702;8.884;2023-02-26T05:03:16;95680;;;-4.4;71
68891;BME280;55932;48.702;8.884;2023-02-26T05:05:53;95680;;;-4.5;71
68891;BME280;55932;48.702;8.884;2023-02-26T05:10:49;95680;;;-4.5;71
68891;BME280;55932;48.702;8.884;2023-02-26T05:13:19;95690;;;-4.5;71
68891;BME280;55932;48.702;8.884;2023-02-26T05:15:52;95700;;;-4.5;71
68891;BME280;55932;48.702;8.884;2023-02-26T05:18:21;95700;;;-4.5;71
68891;BME280;55932;48.702;8.884;2023-02-26T05:20:53;95700;;;-4.5;70.5
68891;BME280;55932;48.702;8.884;2023-02-26T05:23:23;95700;;;-4.4;70.5
68891;BME280;55932;48.702;8.884;2023-02-26T05:25:55;95690;;;-4.3;70.5
68891;BME280;55932;48.702;8.884;2023-02-26T05:28:25;95700;;;-4.3;70.5
68891;BME280;55932;48.702;8.884;2023-02-26T05:30:56;95700;;;-4.3;70.5
68891;BME280;55932;48.702;8.884;2023-02-26T05:33:26;95700;;;-4.6;71
68891;BME280;55932;48.702;8.884;2023-02-26T05:36:04;95700;;;-4.6;71
68891;BME280;55932;48.702;8.884;2023-02-26T05:43:37;95710;;;-4.7;71
68891;BME280;55932;48.702;8.884;2023-02-26T05:48:37;95720;;;-4.8;71
68891;BME280;55932;48.702;8.884;2023-02-26T05:51:01;95720;;;-4.8;71
68891;BME280;55932;48.702;8.884;2023-02-26T05:53:32;95720;;;-4.8;71
68891;BME280;55932;48.702;8.884;2023-02-26T05:56:03;95720;;;-4.8;71
68891;BME280;55932;48.702;8.884;2023-02-26T06:01:10;95730;;;-4.9;71
68891;BME280;55932;48.702;8.884;2023-02-26T06:03:40;95730;;;-4.9;71
68891;BME280;55932;48.702;8.884;2023-02-26T06:06:17;95730;;;-4.9;71
68891;BME280;55932;48.702;8.884;2023-02-26T06:11:05;95750;;;-4.8;70.5
68891;BME280;55932;48.702;8.884;2023-02-26T06:13:36;95750;;;-4.8;70.5
68891;BME280;55932;48.702;8.884;2023-02-26T06:16:07;95760;;;-4.8;70.5
68891;BME280;55932;48.702;8.884;2023-02-26T06:21:02;95770;;;-4.7;70.5
68891;BME280;55932;48.702;8.884;2023-02-26T06:23:32;95770;;;-4.8;70.5
68891;BME280;55932;48.702;8.884;2023-02-26T06:26:03;95770;;;-4.8;71
68891;BME280;55932;48.702;8.884;2023-02-26T06:28:34;95780;;;-4.8;71
68891;BME280;55932;48.702;8.884;2023-02-26T06:31:05;95780;;;-4.6;70.5
68891;BME280;55932;48.702;8.884;2023-02-26T06:41:27;95800;;;-4.5;70.5
68891;BME280;55932;48.702;8.884;2023-02-26T06:44:04;95800;;;-4.5;70.5
68891;BME280;55932;48.702;8.884;2023-02-26T06:48:44;95800;;;-4.1;70.5
68891;BME280;55932;48.702;8.884;2023-02-26T06:51:16;95800;;;-4;70.5
68891;BME280;55932;48.702;8.884;2023-02-26T06:56:10;95820;;;-4;70
68891;BME280;55932;48.702;8.884;2023-02-26T07:06:14;95830;;;-3.2;69.5
68891;BME280;55932;48.702;8.884;2023-02-26T07:08:45;95830;;;-2;67.5
68891;BME280;55932;48.702;8.884;2023-02-26T07:11:15;95820;;;0;64
68891;BME280;55932;48.702;8.884;2023-02-26T07:13:46;95820;;;0.9;63
68891;BME280;55932;48.702;8.884;2023-02-26T07:16:30;95820;;;0.8;64.5
68891;BME280;55932;48.702;8.884;2023-02-26T07:19:00;95820;;;0.6;66
68891;BME280;55932;48.702;8.884;2023-02-26T07:21:25;95830;;;0.5;66
68891;BME280;55932;48.702;8.884;2023-02-26T07:23:55;95840;;;-0.1;67
68891;BME280;55932;48.702;8.884;2023-02-26T07:26:26;95840;;;-0.6;67.5
68891;BME280;55932;48.702;8.884;2023-02-26T07:28:57;95840;;;-1;68
68891;BME280;55932;48.702;8.884;2023-02-26T07:31:34;95840;;;-1.4;68.5
68891;BME280;55932;48.702;8.884;2023-02-26T07:36:30;95850;;;-1.5;68.5
68891;BME280;55932;48.702;8.884;2023-02-26T07:39:01;95850;;;-1.5;69
68891;BME280;55932;48.702;8.884;2023-02-26T07:41:32;95850;;;-1.6;69
68891;BME280;55932;48.702;8.884;2023-02-26T07:49:04;95860;;;-1.3;69.5
68891;BME280;55932;48.702;8.884;2023-02-26T07:51:35;95860;;;-1;69.5
68891;BME280;55932;48.702;8.884;2023-02-26T07:54:07;95850;;;-0.7;69
68891;BME280;55932;48.702;8.884;2023-02-26T08:04:03;95860;;;-0.3;68.5
68891;BME280;55932;48.702;8.884;2023-02-26T08:06:34;95840;;;0;68.5
68891;BME280;55932;48.702;8.884;2023-02-26T08:09:05;95860;;;0;68.5
68891;BME280;55932;48.702;8.884;2023-02-26T08:11:36;95860;;;0;68.5
68891;BME280;55932;48.702;8.884;2023-02-26T08:16:43;95860;;;-0.7;69
68891;BME280;55932;48.702;8.884;2023-02-26T08:19:15;95870;;;-0.8;69.5
68891;BME280;55932;48.702;8.884;2023-02-26T08:21:45;95870;;;-0.9;69.5
68891;BME280;55932;48.702;8.884;2023-02-26T08:24:13;95880;;;-1.1;69.5
68891;BME280;55932;48.702;8.884;2023-02-26T08:31:41;95880;;;-1.5;69.5
68891;BME280;55932;48.702;8.884;2023-02-26T08:34:12;95880;;;-1.3;69.5
68891;BME280;55932;48.702;8.884;2023-02-26T08:39:13;95880;;;0;68.5
68891;BME280;55932;48.702;8.884;2023-02-26T08:41:44;95870;;;0.8;68.5
68891;BME280;55932;48.702;8.884;2023-02-26T08:44:16;95860;;;1;68.5
68891;BME280;55932;48.702;8.884;2023-02-26T08:46:59;95870;;;0.8;68
68891;BME280;55932;48.702;8.884;2023-02-26T08:49:29;95880;;;0.6;68.5
68891;BME280;55932;48.702;8.884;2023-02-26T08:52:06;95880;;;0.4;68.5
68891;BME280;55932;48.702;8.884;2023-02-26T08:54:23;95870;;;0.7;68.5
68891;BME280;55932;48.702;8.884;2023-02-26T08:56:54;95880;;;0.3;68.5
68891;BME280;55932;48.702;8.884;2023-02-26T08:59:31;95890;;;-0.3;69
68891;BME280;55932;48.702;8.884;2023-02-26T09:01:56;95890;;;-0.6;69.5
68891;BME280;55932;48.702;8.884;2023-02-26T09:04:27;95890;;;-0.7;69.5
68891;BME280;55932;48.702;8.884;2023-02-26T09:06:58;95890;;;-0.4;69
68891;BME280;55932;48.702;8.884;2023-02-26T09:09:21;95890;;;-0.1;69
68891;BME280;55932;48.702;8.884;2023-02-26T09:11:52;95890;;;-0.3;69
68891;BME280;55932;48.702;8.884;2023-02-26T09:19:25;95900;;;-0.1;69
68891;BME280;55932;48.702;8.884;2023-02-26T09:21:56;95910;;;-0.5;69
68891;BME280;55932;48.702;8.884;2023-02-26T09:24:26;95910;;;-0.7;69.5
68891;BME280;55932;48.702;8.884;2023-02-26T09:29:34;95920;;;-0.9;69.5
68891;BME280;55932;48.702;8.884;2023-02-26T09:32:05;95920;;;-1;69.5
68891;BME280;55932;48.702;8.884;2023-02-26T09:34:36;95930;;;-1.1;69.5
68891;BME280;55932;48.702;8.884;2023-02-26T09:39:34;95930;;;-0.9;69.5
68891;BME280;55932;48.702;8.884;2023-02-26T09:49:39;95950;;;-1.1;69.5
68891;BME280;55932;48.702;8.884;2023-02-26T09:52:12;95950;;;-1.2;69.5
68891;BME280;55932;48.702;8.884;2023-02-26T09:54:35;95950;;;-1.2;69.5
68891;BME280;55932;48.702;8.884;2023-02-26T09:57:14;95960;;;-1.3;69.5
68891;BME280;55932;48.702;8.884;2023-02-26T09:59:43;95950;;;-1.3;69.5
68891;BME280;55932;48.702;8.884;2023-02-26T10:04:44;95960;;;-0.8;69
68891;BME280;55932;48.702;8.884;2023-02-26T10:07:14;95950;;;-0.4;68.5
68891;BME280;55932;48.702;8.884;2023-02-26T10:09:49;95950;;;-0.4;69
68891;BME280;55932;48.702;8.884;2023-02-26T10:17:16;95950;;;-0.7;69
68891;BME280;55932;48.702;8.884;2023-02-26T10:19:44;95960;;;-0.9;69.5
68891;BME280;55932;48.702;8.884;2023-02-26T10:22:15;95970;;;-0.9;69.5
68891;BME280;55932;48.702;8.884;2023-02-26T10:27:34;95960;;;-0.6;69.5
68891;BME280;55932;48.702;8.884;2023-02-26T10:29:56;95970;;;-0.8;69
68891;BME280;55932;48.702;8.884;2023-02-26T10:32:25;95980;;;-1;69.5
68891;BME280;55932;48.702;8.884;2023-02-26T10:34:50;95980;;;-1;69.5
68891;BME280;55932;48.702;8.884;2023-02-26T10:42:29;95980;;;-1.2;69.5
68891;BME280;55932;48.702;8.884;2023-02-26T10:44:55;95990;;;-1.2;69.5
68891;BME280;55932;48.702;8.884;2023-02-26T10:49:53;95990;;;-0.8;69
68891;BME280;55932;48.702;8.884;2023-02-26T10:52:30;95990;;;-0.7;69
68891;BME280;55932;48.702;8.884;2023-02-26T10:55:03;95990;;;-0.8;69
68891;BME280;55932;48.702;8.884;2023-02-26T10:59:56;95990;;;-0.5;69
68891;BME280;55932;48.702;8.884;2023-02-26T11:02:36;95990;;;-0.4;68.5
68891;BME280;55932;48.702;8.884;2023-02-26T11:04:57;95980;;;-0.4;68.5
68891;BME280;55932;48.702;8.884;2023-02-26T11:12:31;95990;;;-0.1;69
68891;BME280;55932;48.702;8.884;2023-02-26T11:15:00;95980;;;-0.1;69
68891;BME280;55932;48.702;8.884;2023-02-26T11:20:17;95980;;;0;69
68891;BME280;55932;48.702;8.884;2023-02-26T11:22:51;95980;;;0;69
68891;BME280;55932;48.702;8.884;2023-02-26T11:27:39;95980;;;0.2;68.5
68891;BME280;55932;48.702;8.884;2023-02-26T11:30:18;95980;;;0.2;69
68891;BME280;55932;48.702;8.884;2023-02-26T11:32:41;95980;;;0.2;69
68891;BME280;55932;48.702;8.884;2023-02-26T11:40:15;95980;;;0;69
68891;BME280;55932;48.702;8.884;2023-02-26T11:42:42;95970;;;0;69
68891;BME280;55932;48.702;8.884;2023-02-26T11:45:11;95970;;;0;69
68891;BME280;55932;48.702;8.884;2023-02-26T11:47:39;95970;;;0;69
68891;BME280;55932;48.702;8.884;2023-02-26T11:50:13;95980;;;0.2;68.5
68891;BME280;55932;48.702;8.884;2023-02-26T11:52:42;95980;;;0.5;68.5
68891;BME280;55932;48.702;8.884;2023-02-26T11:55:20;95990;;;0.6;68.5
68891;BME280;55932;48.702;8.884;2023-02-26T11:57:42;95980;;;0.4;68.5
68891;BME280;55932;48.702;8.884;2023-02-26T12:10:16;95980;;;0.1;69
68891;BME280;55932;48.702;8.884;2023-02-26T12:15:45;95980;;;0.3;69
68891;BME280;55932;48.702;8.884;2023-02-26T12:20:34;95980;;;0.3;69
68891;BME280;55932;48.702;8.884;2023-02-26T12:23:12;95970;;;0.3;69
68891;BME280;55932;48.702;8.884;2023-02-26T12:25:36;95980;;;0.2;69
68891;BME280;55932;48.702;8.884;2023-02-26T12:30:34;95980;;;0.1;69
68891;BME280;55932;48.702;8.884;2023-02-26T12:33:08;95980;;;0;69
68891;BME280;55932;48.702;8.884;2023-02-26T12:35:36;95980;;;0.1;69
68891;BME280;55932;48.702;8.884;2023-02-26T12:43:10;95990;;;0.4;69
68891;BME280;55932;48.702;8.884;2023-02-26T12:45:43;95990;;;0.3;69
68891;BME280;55932;48.702;8.884;2023-02-26T12:50:40;95990;;;0.2;69
68891;BME280;55932;48.702;8.884;2023-02-26T12:53:08;96010;;;0.1;69
68891;BME280;55932;48.702;8.884;2023-02-26T12:55:37;96000;;;0;69
68891;BME280;55932;48.702;8.884;2023-02-26T12:58:14;96000;;;-0.1;69
68891;BME280;55932;48.702;8.884;2023-02-26T13:03:22;96020;;;-0.2;69.5
68891;BME280;55932;48.702;8.884;2023-02-26T13:06:01;96010;;;-0.2;69.5
68891;BME280;55932;48.702;8.884;2023-02-26T13:08:23;96020;;;-0.2;69.5
68891;BME280;55932;48.702;8.884;2023-02-26T13:10:39;96010;;;-0.2;69
68891;BME280;55932;48.702;8.884;2023-02-26T13:16:17;96010;;;0.3;68.5
68891;BME280;55932;48.702;8.884;2023-02-26T13:23:11;96000;;;1;68.5
68891;BME280;55932;48.702;8.884;2023-02-26T13:25:54;96000;;;1.2;68.5
68891;BME280;55932;48.702;8.884;2023-02-26T13:28:15;96010;;;1.2;68.5
68891;BME280;55932;48.702;8.884;2023-02-26T13:30:42;96010;;;1.1;68.5
68891;BME280;55932;48.702;8.884;2023-02-26T13:35:36;96010;;;0.9;68.5
68891;BME280;55932;48.702;8.884;2023-02-26T13:38:18;96020;;;0.8;68.5
68891;BME280;55932;48.702;8.884;2023-02-26T13:45:44;96010;;;0.8;69
68891;BME280;55932;48.702;8.884;2023-02-26T13:48:43;96010;;;0.8;69
68891;BME280;55932;48.702;8.884;2023-02-26T13:50:44;96020;;;0.9;69
68891;BME280;55932;48.702;8.884;2023-02-26T13:53:34;96010;;;1;69
68891;BME280;55932;48.702;8.884;2023-02-26T13:55:48;96010;;;0.9;69
68891;BME280;55932;48.702;8.884;2023-02-26T14:00:45;96030;;;0.8;69
68891;BME280;55932;48.702;8.884;2023-02-26T14:05:52;96020;;;0.8;68.5
68891;BME280;55932;48.702;8.884;2023-02-26T14:13:18;96040;;;0.9;68.5
68891;BME280;55932;48.702;8.884;2023-02-26T14:15:52;96030;;;1;68.5
68891;BME280;55932;48.702;8.884;2023-02-26T14:18:24;96030;;;1.2;68.5
68891;BME280;55932;48.702;8.884;2023-02-26T14:23:30;96020;;;2.6;71
68891;BME280;55932;48.702;8.884;2023-02-26T14:26:02;96020;;;3.1;70.5
68891;BME280;55932;48.702;8.884;2023-02-26T14:28:31;96020;;;3.7;70.5
68891;BME280;55932;48.702;8.884;2023-02-26T14:31:12;96030;;;3.4;69.5
68891;BME280;55932;48.702;8.884;2023-02-26T14:33:26;96030;;;3.3;70
68891;BME280;55932;48.702;8.884;2023-02-26T14:41:00;96040;;;1.6;68
68891;BME280;55932;48.702;8.884;2023-02-26T14:43:30;96040;;;1.3;69
68891;BME280;55932;48.702;8.884;2023-02-26T14:45:56;96040;;;1.2;69
68891;BME280;55932;48.702;8.884;2023-02-26T14:48:27;96040;;;1;69
68891;BME280;55932;48.702;8.884;2023-02-26T14:53:39;96040;;;1.7;69.5
68891;BME280;55932;48.702;8.884;2023-02-26T14:56:16;96030;;;2;69.5
68891;BME280;55932;48.702;8.884;2023-02-26T14:58:40;96040;;;1.8;69
68891;BME280;55932;48.702;8.884;2023-02-26T15:01:18;96050;;;1.5;68.5
68891;BME280;55932;48.702;8.884;2023-02-26T15:11:07;96040;;;0.6;69
68891;BME280;55932;48.702;8.884;2023-02-26T15:13:42;96040;;;0.4;69.5
68891;BME280;55932;48.702;8.884;2023-02-26T15:16:10;96060;;;0.4;69.5
68891;BME280;55932;48.702;8.884;2023-02-26T15:18:42;96050;;;0.8;69
68891;BME280;55932;48.702;8.884;2023-02-26T15:23:39;96060;;;1.4;68.5
68891;BME280;55932;48.702;8.884;2023-02-26T15:26:12;96050;;;1.3;68.5
68891;BME280;55932;48.702;8.884;2023-02-26T15:28:39;96060;;;1.3;68.5
68891;BME280;55932;48.702;8.884;2023-02-26T15:31:10;96060;;;1.2;69
68891;BME280;55932;48.702;8.884;2023-02-26T15:38:58;96070;;;1;69
68891;BME280;55932;48.702;8.884;2023-02-26T15:43:46;96080;;;0.8;69
68891;BME280;55932;48.702;8.884;2023-02-26T15:46:17;96070;;;0.7;69
68891;BME280;55932;48.702;8.884;2023-02-26T15:48:45;96060;;;0.6;69
68891;BME280;55932;48.702;8.884;2023-02-26T15:51:16;96080;;;0.5;69
68891;BME280;55932;48.702;8.884;2023-02-26T15:53:47;96090;;;0.4;69
68891;BME280;55932;48.702;8.884;2023-02-26T15:56:19;96090;;;0.3;69.5
68891;BME280;55932;48.702;8.884;2023-02-26T16:04:04;96100;;;-0.2;69.5
68891;BME280;55932;48.702;8.884;2023-02-26T16:09:03;96100;;;-0.1;69.5
68891;BME280;55932;48.702;8.884;2023-02-26T16:11:33;96110;;;0;69
68891;BME280;55932;48.702;8.884;2023-02-26T16:16:47;96110;;;0.5;69
68891;BME280;55932;48.702;8.884;2023-02-26T16:19:01;96120;;;0.6;69
68891;BME280;55932;48.702;8.884;2023-02-26T16:21:34;96110;;;0.5;69
68891;BME280;55932;48.702;8.884;2023-02-26T16:24:03;96120;;;0.4;69
68891;BME280;55932;48.702;8.884;2023-02-26T16:26:37;96110;;;0.3;69
68891;BME280;55932;48.702;8.884;2023-02-26T16:29:06;96120;;;0.3;69.5
68891;BME280;55932;48.702;8.884;2023-02-26T16:31:42;96120;;;0.3;69.5
68891;BME280;55932;48.702;8.884;2023-02-26T16:39:12;96150;;;0.1;69.5
68891;BME280;55932;48.702;8.884;2023-02-26T16:41:38;96160;;;0;69.5
68891;BME280;55932;48.702;8.884;2023-02-26T16:44:36;96160;;;0;69.5
68891;BME280;55932;48.702;8.884;2023-02-26T16:46:41;96160;;;0;69.5
68891;BME280;55932;48.702;8.884;2023-02-26T16:49:04;96170;;;0;69.5
68891;BME280;55932;48.702;8.884;2023-02-26T16:51:34;96170;;;-0.1;69.5
68891;BME280;55932;48.702;8.884;2023-02-26T16:54:08;96170;;;-0.1;69.5
68891;BME280;55932;48.702;8.884;2023-02-26T17:01:48;96190;;;-0.2;69.5
68891;BME280;55932;48.702;8.884;2023-02-26T17:06:39;96200;;;-0.2;69.5
68891;BME280;55932;48.702;8.884;2023-02-26T17:09:25;96200;;;-0.2;69.5
68891;BME280;55932;48.702;8.884;2023-02-26T17:11:47;96210;;;-0.2;69.5
68891;BME280;55932;48.702;8.884;2023-02-26T17:26:46;96220;;;-0.3;69.5
68891;BME280;55932;48.702;8.884;2023-02-26T17:29:18;96220;;;-0.3;69.5
68891;BME280;55932;48.702;8.884;2023-02-26T17:31:47;96220;;;-0.3;69.5
68891;BME280;55932;48.702;8.884;2023-02-26T17:34:18;96230;;;-0.4;69.5
68891;BME280;55932;48.702;8.884;2023-02-26T17:39:25;96230;;;-0.4;69.5
68891;BME280;55932;48.702;8.884;2023-02-26T17:41:56;96240;;;-0.4;69.5
68891;BME280;55932;48.702;8.884;2023-02-26T17:44:27;96240;;;-0.4;69.5
68891;BME280;55932;48.702;8.884;2023-02-26T17:51:53;96240;;;-0.5;69.5
68891;BME280;55932;48.702;8.884;2023-02-26T17:54:24;96240;;;-0.6;69.5
68891;BME280;55932;48.702;8.884;2023-02-26T17:56:55;96250;;;-0.7;69.5
68891;BME280;55932;48.702;8.884;2023-02-26T17:59:25;96250;;;-0.9;69.5
68891;BME280;55932;48.702;8.884;2023-02-26T18:01:56;96250;;;-1;70
68891;BME280;55932;48.702;8.884;2023-02-26T18:04:27;96250;;;-1;70
68891;BME280;55932;48.702;8.884;2023-02-26T18:06:58;96260;;;-1;70
68891;BME280;55932;48.702;8.884;2023-02-26T18:09:29;96270;;;-1;70
68891;BME280;55932;48.702;8.884;2023-02-26T18:19:37;96270;;;-1;70
68891;BME280;55932;48.702;8.884;2023-02-26T18:22:12;96270;;;-1;69.5
68891;BME280;55932;48.702;8.884;2023-02-26T18:24:45;96260;;;-1.2;70
68891;BME280;55932;48.702;8.884;2023-02-26T18:27:12;96260;;;-1.4;70
68891;BME280;55932;48.702;8.884;2023-02-26T18:34:36;96270;;;-1.7;70
68891;BME280;55932;48.702;8.884;2023-02-26T18:37:11;96270;;;-1.8;70
68891;BME280;55932;48.702;8.884;2023-02-26T18:39:37;96270;;;-1.8;70
68891;BME280;55932;48.702;8.884;2023-02-26T18:42:25;96270;;;-1.8;70
68891;BME280;55932;48.702;8.884;2023-02-26T18:49:41;96280;;;-2;70
68891;BME280;55932;48.702;8.884;2023-02-26T18:52:18;96280;;;-1.9;70
68891;BME280;55932;48.702;8.884;2023-02-26T18:54:49;96270;;;-1.8;70
68891;BME280;55932;48.702;8.884;2023-02-26T18:57:20;96280;;;-1.7;70
68891;BME280;55932;48.702;8.884;2023-02-26T18:59:51;96280;;;-1.7;70
68891;BME280;55932;48.702;8.884;2023-02-26T19:02:22;96280;;;-1.7;70
68891;BME280;55932;48.702;8.884;2023-02-26T19:04:53;96280;;;-1.7;70
68891;BME280;55932;48.702;8.884;2023-02-26T19:07:23;96290;;;-1.6;70
68891;BME280;55932;48.702;8.884;2023-02-26T19:09:54;96280;;;-1.5;70
68891;BME280;55932;48.702;8.884;2023-02-26T19:12:25;96280;;;-1.5;69.5
68891;BME280;55932;48.702;8.884;2023-02-26T19:14:56;96280;;;-1.5;70
68891;BME280;55932;48.702;8.884;2023-02-26T19:17:35;96290;;;-1.6;70
68891;BME280;55932;48.702;8.884;2023-02-26T19:27:37;96310;;;-1.5;69.5
68891;BME280;55932;48.702;8.884;2023-02-26T19:30:14;96300;;;-1.4;69.5
68891;BME280;55932;48.702;8.884;2023-02-26T19:35:02;96310;;;-1.5;69.5
68891;BME280;55932;48.702;8.884;2023-02-26T19:37:33;96310;;;-1.6;70
68891;BME280;55932;48.702;8.884;2023-02-26T19:40:18;96310;;;-1.7;70
68891;BME280;55932;48.702;8.884;2023-02-26T19:42:34;96320;;;-1.7;70
68891;BME280;55932;48.702;8.884;2023-02-26T19:45:13;96310;;;-1.7;70
68891;BME280;55932;48.702;8.884;2023-02-26T19:52:57;96330;;;-1.6;70
68891;BME280;55932;48.702;8.884;2023-02-26T19:55:14;96330;;;-1.7;70
68891;BME280;55932;48.702;8.884;2023-02-26T20:00:15;96340;;;-1.7;70
68891;BME280;55932;48.702;8.884;2023-02-26T20:02:40;96350;;;-1.7;70
68891;BME280;55932;48.702;8.884;2023-02-26T20:05:10;96350;;;-1.6;69.5
68891;BME280;55932;48.702;8.884;2023-02-26T20:12:37;96360;;;-1.7;69.5
68891;BME280;55932;48.702;8.884;2023-02-26T20:17:38;96360;;;-1.6;69.5
68891;BME280;55932;48.702;8.884;2023-02-26T20:20:09;96370;;;-1.6;69.5
68891;BME280;55932;48.702;8.884;2023-02-26T20:22:40;96360;;;-1.6;69.5
68891;BME280;55932;48.702;8.884;2023-02-26T20:25:19;96370;;;-1.6;69.5
68891;BME280;55932;48.702;8.884;2023-02-26T20:27:41;96360;;;-1.6;69.5
68891;BME280;55932;48.702;8.884;2023-02-26T20:30:12;96370;;;-1.6;69.5